ANA377 RJTT-RJCN
Flight info
| Callsign | ANA377 |
|---|---|
| Flight time | 1h 26m |
| Altitude | 35000 |
| Route | BRUCE AGRIS Y11 YTE Y111 TCE V2 MASHU |
| Aircraft | B738/M-SDE2E3FGHIRWXY/LB1 |
Departure
| Time | 2026-05-05 22:23 |
|---|---|
| Airport | Tokyo Haneda International Airport (RJTT) |
Arrival
| Time | 2026-05-05 23:49 |
|---|---|
| Airport | Nakashibetsu Airport (RJCN) |
| Time | Latitude | Longitude | Altitude | Speed | Heading |
|---|---|---|---|---|---|
| 2026-05-05 21:53 | 35.54938 | 139.79218 | 24 ft | 0 kts | 155° |
| 2026-05-05 22:15 | 35.54940 | 139.79216 | 23 ft | 3 kts | 155° |
| 2026-05-05 22:15 | 35.54957 | 139.79206 | 27 ft | 3 kts | 155° |
| 2026-05-05 22:16 | 35.54974 | 139.79197 | 28 ft | 3 kts | 155° |
| 2026-05-05 22:16 | 35.54991 | 139.79187 | 28 ft | 3 kts | 155° |
| 2026-05-05 22:16 | 35.55007 | 139.79178 | 27 ft | 3 kts | 155° |
| 2026-05-05 22:16 | 35.55009 | 139.79177 | 27 ft | 0 kts | 155° |
| 2026-05-05 22:17 | 35.55009 | 139.79184 | 27 ft | 2 kts | 88° |
| 2026-05-05 22:18 | 35.55035 | 139.79219 | 24 ft | 11 kts | 52° |
| 2026-05-05 22:18 | 35.55105 | 139.79305 | 23 ft | 16 kts | 11° |
| 2026-05-05 22:18 | 35.55205 | 139.79254 | 24 ft | 16 kts | 330° |
| 2026-05-05 22:18 | 35.55308 | 139.79180 | 25 ft | 20 kts | 330° |
| 2026-05-05 22:19 | 35.55439 | 139.79085 | 26 ft | 22 kts | 330° |
| 2026-05-05 22:19 | 35.55572 | 139.78994 | 24 ft | 22 kts | 330° |
| 2026-05-05 22:19 | 35.55699 | 139.78901 | 24 ft | 21 kts | 330° |
| 2026-05-05 22:19 | 35.55824 | 139.78813 | 23 ft | 20 kts | 330° |
| 2026-05-05 22:20 | 35.55945 | 139.78729 | 24 ft | 20 kts | 330° |
| 2026-05-05 22:20 | 35.56061 | 139.78644 | 22 ft | 19 kts | 329° |
| 2026-05-05 22:20 | 35.56182 | 139.78559 | 22 ft | 21 kts | 330° |
| 2026-05-05 22:20 | 35.56307 | 139.78471 | 23 ft | 20 kts | 333° |
| 2026-05-05 22:21 | 35.56414 | 139.78534 | 22 ft | 19 kts | 59° |
| 2026-05-05 22:21 | 35.56445 | 139.78599 | 22 ft | 0 kts | 59° |
| 2026-05-05 22:21 | 35.56446 | 139.78602 | 22 ft | 3 kts | 59° |
| 2026-05-05 22:21 | 35.56480 | 139.78661 | 22 ft | 13 kts | 58° |
| 2026-05-05 22:22 | 35.56469 | 139.78745 | 24 ft | 9 kts | 143° |
| 2026-05-05 22:22 | 35.56381 | 139.78807 | 23 ft | 41 kts | 150° |
| 2026-05-05 22:22 | 35.55872 | 139.79166 | 24 ft | 127 kts | 150° |
| 2026-05-05 22:22 | 35.54909 | 139.79846 | 221 ft | 181 kts | 151° |
| 2026-05-05 22:23 | 35.53811 | 139.80679 | 1185 ft | 193 kts | 143° |
| 2026-05-05 22:23 | 35.52812 | 139.81861 | 2084 ft | 205 kts | 140° |
| 2026-05-05 22:23 | 35.51795 | 139.83102 | 2889 ft | 207 kts | 140° |
| 2026-05-05 22:23 | 35.50764 | 139.84381 | 3500 ft | 218 kts | 139° |
| 2026-05-05 22:24 | 35.49617 | 139.85782 | 3755 ft | 248 kts | 140° |
| 2026-05-05 22:24 | 35.48362 | 139.87320 | 4391 ft | 260 kts | 139° |
| 2026-05-05 22:24 | 35.47088 | 139.88925 | 5220 ft | 265 kts | 138° |
| 2026-05-05 22:24 | 35.46236 | 139.90057 | 5803 ft | 269 kts | 131° |
| 2026-05-05 22:25 | 35.45471 | 139.92742 | 6961 ft | 278 kts | 92° |
| 2026-05-05 22:25 | 35.45883 | 139.94935 | 7722 ft | 287 kts | 64° |
| 2026-05-05 22:25 | 35.46910 | 139.96631 | 8434 ft | 291 kts | 50° |
| 2026-05-05 22:25 | 35.48367 | 139.98388 | 9191 ft | 299 kts | 36° |
| 2026-05-05 22:26 | 35.50320 | 139.99275 | 9928 ft | 305 kts | 4° |
| 2026-05-05 22:26 | 35.52419 | 139.99044 | 10741 ft | 306 kts | 345° |
| 2026-05-05 22:26 | 35.54529 | 139.98318 | 11054 ft | 327 kts | 342° |
| 2026-05-05 22:26 | 35.56788 | 139.97480 | 11231 ft | 350 kts | 342° |
| 2026-05-05 22:27 | 35.59193 | 139.96615 | 11400 ft | 372 kts | 343° |
| 2026-05-05 22:27 | 35.61804 | 139.95943 | 11500 ft | 395 kts | 358° |
| 2026-05-05 22:27 | 35.64571 | 139.96161 | 12098 ft | 399 kts | 5° |
| 2026-05-05 22:27 | 35.67350 | 139.96442 | 12739 ft | 403 kts | 3° |
| 2026-05-05 22:28 | 35.70176 | 139.96648 | 13337 ft | 409 kts | 2° |
| 2026-05-05 22:28 | 35.73035 | 139.96766 | 13930 ft | 414 kts | 356° |
| 2026-05-05 22:28 | 35.75838 | 139.95994 | 14422 ft | 415 kts | 335° |
| 2026-05-05 22:28 | 35.78473 | 139.94603 | 15074 ft | 412 kts | 336° |
| 2026-05-05 22:29 | 35.81133 | 139.93301 | 15267 ft | 412 kts | 337° |
| 2026-05-05 22:29 | 35.83837 | 139.92029 | 15271 ft | 416 kts | 338° |
| 2026-05-05 22:29 | 35.86532 | 139.90774 | 15301 ft | 413 kts | 338° |
| 2026-05-05 22:29 | 35.89219 | 139.89516 | 15287 ft | 414 kts | 338° |
| 2026-05-05 22:30 | 35.91914 | 139.88249 | 15300 ft | 417 kts | 337° |
| 2026-05-05 22:30 | 35.94628 | 139.86970 | 15824 ft | 419 kts | 337° |
| 2026-05-05 22:30 | 35.97373 | 139.85842 | 16487 ft | 422 kts | 348° |
| 2026-05-05 22:30 | 36.00315 | 139.85783 | 17086 ft | 426 kts | 8° |
| 2026-05-05 22:31 | 36.03150 | 139.86810 | 17805 ft | 425 kts | 21° |
| 2026-05-05 22:31 | 36.05910 | 139.88159 | 18385 ft | 429 kts | 21° |
| 2026-05-05 22:31 | 36.08697 | 139.89536 | 18797 ft | 434 kts | 21° |
| 2026-05-05 22:31 | 36.11528 | 139.90911 | 19164 ft | 440 kts | 20° |
| 2026-05-05 22:32 | 36.14407 | 139.92277 | 19510 ft | 447 kts | 20° |
| 2026-05-05 22:32 | 36.17333 | 139.93650 | 19918 ft | 451 kts | 19° |
| 2026-05-05 22:32 | 36.20326 | 139.94851 | 20282 ft | 454 kts | 8° |
| 2026-05-05 22:32 | 36.23471 | 139.95014 | 20688 ft | 452 kts | 354° |
| 2026-05-05 22:33 | 36.26602 | 139.94816 | 21254 ft | 452 kts | 353° |
| 2026-05-05 22:33 | 36.29762 | 139.94655 | 21588 ft | 458 kts | 354° |
| 2026-05-05 22:33 | 36.32968 | 139.94537 | 21922 ft | 464 kts | 354° |
| 2026-05-05 22:33 | 36.36212 | 139.94448 | 22281 ft | 467 kts | 354° |
| 2026-05-05 22:34 | 36.39429 | 139.94367 | 22692 ft | 469 kts | 354° |
| 2026-05-05 22:34 | 36.42699 | 139.94294 | 23102 ft | 472 kts | 354° |
| 2026-05-05 22:34 | 36.46048 | 139.94346 | 23470 ft | 477 kts | 356° |
| 2026-05-05 22:34 | 36.49339 | 139.94488 | 23805 ft | 481 kts | 356° |
| 2026-05-05 22:35 | 36.52688 | 139.94666 | 24148 ft | 482 kts | 357° |
| 2026-05-05 22:35 | 36.56041 | 139.94845 | 24500 ft | 483 kts | 356° |
| 2026-05-05 22:35 | 36.59410 | 139.95010 | 24775 ft | 486 kts | 356° |
| 2026-05-05 22:35 | 36.62798 | 139.95162 | 25030 ft | 489 kts | 356° |
| 2026-05-05 22:36 | 36.66207 | 139.95307 | 25295 ft | 491 kts | 355° |
| 2026-05-05 22:36 | 36.69634 | 139.95449 | 25595 ft | 494 kts | 355° |
| 2026-05-05 22:36 | 36.73057 | 139.95593 | 26017 ft | 492 kts | 355° |
| 2026-05-05 22:36 | 36.76480 | 139.95737 | 26319 ft | 493 kts | 355° |
| 2026-05-05 22:37 | 36.79931 | 139.95879 | 26516 ft | 498 kts | 355° |
| 2026-05-05 22:37 | 36.83400 | 139.96024 | 26728 ft | 501 kts | 355° |
| 2026-05-05 22:37 | 36.86891 | 139.96187 | 26977 ft | 504 kts | 356° |
| 2026-05-05 22:37 | 36.90398 | 139.96724 | 27287 ft | 513 kts | 5° |
| 2026-05-05 22:38 | 36.93878 | 139.97689 | 27756 ft | 511 kts | 6° |
| 2026-05-05 22:38 | 36.96222 | 139.98372 | 27997 ft | 511 kts | 6° |
| 2026-05-05 22:38 | 36.99695 | 139.99345 | 28244 ft | 513 kts | 5° |
| 2026-05-05 22:38 | 37.03196 | 140.00265 | 28482 ft | 514 kts | 5° |
| 2026-05-05 22:39 | 37.06702 | 140.01159 | 28822 ft | 514 kts | 4° |
| 2026-05-05 22:39 | 37.10155 | 140.02041 | 29237 ft | 513 kts | 4° |
| 2026-05-05 22:39 | 37.13634 | 140.02935 | 29743 ft | 509 kts | 4° |
| 2026-05-05 22:39 | 37.17102 | 140.03829 | 30138 ft | 509 kts | 4° |
| 2026-05-05 22:40 | 37.20575 | 140.04725 | 30395 ft | 510 kts | 4° |
| 2026-05-05 22:40 | 37.24055 | 140.05623 | 30619 ft | 512 kts | 4° |
| 2026-05-05 22:40 | 37.27539 | 140.06525 | 30894 ft | 512 kts | 3° |
| 2026-05-05 22:40 | 37.31027 | 140.07432 | 31254 ft | 511 kts | 4° |
| 2026-05-05 22:41 | 37.34489 | 140.08328 | 31658 ft | 506 kts | 2° |
| 2026-05-05 22:41 | 37.37938 | 140.09127 | 31971 ft | 504 kts | 2° |
| 2026-05-05 22:41 | 37.41390 | 140.10036 | 32177 ft | 509 kts | 3° |
| 2026-05-05 22:41 | 37.44852 | 140.10992 | 32364 ft | 510 kts | 3° |
| 2026-05-05 22:42 | 37.48325 | 140.11931 | 32638 ft | 510 kts | 2° |
| 2026-05-05 22:42 | 37.51787 | 140.12842 | 32980 ft | 508 kts | 2° |
| 2026-05-05 22:42 | 37.55248 | 140.13738 | 33327 ft | 506 kts | 2° |
| 2026-05-05 22:42 | 37.58684 | 140.14625 | 33632 ft | 505 kts | 2° |
| 2026-05-05 22:43 | 37.62132 | 140.15526 | 33895 ft | 506 kts | 2° |
| 2026-05-05 22:43 | 37.65585 | 140.16413 | 34128 ft | 507 kts | 1° |
| 2026-05-05 22:43 | 37.69038 | 140.17308 | 34370 ft | 507 kts | 1° |
| 2026-05-05 22:43 | 37.72496 | 140.18217 | 34630 ft | 506 kts | 2° |
| 2026-05-05 22:44 | 37.75935 | 140.19145 | 34912 ft | 505 kts | 2° |
| 2026-05-05 22:44 | 37.79365 | 140.20042 | 35220 ft | 502 kts | 1° |
| 2026-05-05 22:44 | 37.82796 | 140.20935 | 35230 ft | 506 kts | 1° |
| 2026-05-05 22:45 | 37.89717 | 140.22747 | 35241 ft | 508 kts | 2° |
| 2026-05-05 22:45 | 37.96590 | 140.24576 | 35246 ft | 500 kts | 2° |
| 2026-05-05 22:46 | 38.03353 | 140.26367 | 35245 ft | 496 kts | 2° |
| 2026-05-05 22:46 | 38.10079 | 140.28134 | 35235 ft | 497 kts | 2° |
| 2026-05-05 22:47 | 38.16852 | 140.29926 | 35253 ft | 498 kts | 3° |
| 2026-05-05 22:47 | 38.23633 | 140.31729 | 35250 ft | 497 kts | 3° |
| 2026-05-05 22:48 | 38.30403 | 140.33533 | 35241 ft | 497 kts | 3° |
| 2026-05-05 22:48 | 38.37145 | 140.35696 | 35198 ft | 509 kts | 14° |
| 2026-05-05 22:49 | 38.43365 | 140.40171 | 35185 ft | 524 kts | 33° |
| 2026-05-05 22:49 | 38.46176 | 140.43110 | 35355 ft | 520 kts | 35° |
| 2026-05-05 22:49 | 38.48947 | 140.46105 | 35237 ft | 523 kts | 36° |
| 2026-05-05 22:50 | 38.54469 | 140.52107 | 35228 ft | 520 kts | 35° |
| 2026-05-05 22:50 | 38.60011 | 140.58035 | 35230 ft | 518 kts | 35° |
| 2026-05-05 22:51 | 38.65559 | 140.63908 | 35261 ft | 517 kts | 34° |
| 2026-05-05 22:51 | 38.71099 | 140.69768 | 35227 ft | 516 kts | 35° |
| 2026-05-05 22:52 | 38.76618 | 140.75627 | 35224 ft | 516 kts | 35° |
| 2026-05-05 22:52 | 38.82134 | 140.81498 | 35237 ft | 514 kts | 35° |
| 2026-05-05 22:53 | 38.87591 | 140.87320 | 35220 ft | 513 kts | 35° |
| 2026-05-05 22:53 | 38.93070 | 140.93177 | 35225 ft | 512 kts | 35° |
| 2026-05-05 22:54 | 38.98527 | 140.99023 | 35228 ft | 511 kts | 35° |
| 2026-05-05 22:54 | 39.03981 | 141.04877 | 35232 ft | 510 kts | 36° |
| 2026-05-05 22:55 | 39.09419 | 141.10727 | 35234 ft | 509 kts | 36° |
| 2026-05-05 22:55 | 39.14841 | 141.16573 | 35225 ft | 508 kts | 36° |
| 2026-05-05 22:56 | 39.20247 | 141.22412 | 35225 ft | 507 kts | 36° |
| 2026-05-05 22:56 | 39.25650 | 141.28260 | 35237 ft | 507 kts | 36° |
| 2026-05-05 22:57 | 39.31056 | 141.34123 | 35213 ft | 508 kts | 36° |
| 2026-05-05 22:57 | 39.36463 | 141.39999 | 35231 ft | 508 kts | 36° |
| 2026-05-05 22:58 | 39.41866 | 141.45887 | 35186 ft | 508 kts | 36° |
| 2026-05-05 22:58 | 39.47242 | 141.51740 | 35207 ft | 503 kts | 36° |
| 2026-05-05 22:59 | 39.52594 | 141.57605 | 35197 ft | 504 kts | 36° |
| 2026-05-05 22:59 | 39.57958 | 141.63493 | 35179 ft | 507 kts | 36° |
| 2026-05-05 23:00 | 39.66049 | 141.72384 | 35173 ft | 510 kts | 36° |
| 2026-05-05 23:00 | 39.71470 | 141.78351 | 35161 ft | 513 kts | 36° |
| 2026-05-05 23:01 | 39.76906 | 141.84354 | 35165 ft | 512 kts | 36° |
| 2026-05-05 23:01 | 39.82335 | 141.90367 | 35143 ft | 512 kts | 36° |
| 2026-05-05 23:02 | 39.87553 | 141.96654 | 35128 ft | 514 kts | 47° |
| 2026-05-05 23:02 | 39.91744 | 142.04184 | 35147 ft | 514 kts | 53° |
| 2026-05-05 23:03 | 39.95768 | 142.11779 | 35137 ft | 512 kts | 52° |
| 2026-05-05 23:03 | 39.99837 | 142.19364 | 35151 ft | 509 kts | 52° |
| 2026-05-05 23:04 | 40.03914 | 142.26886 | 35153 ft | 507 kts | 52° |
| 2026-05-05 23:04 | 40.07986 | 142.34392 | 35152 ft | 506 kts | 52° |
| 2026-05-05 23:05 | 40.12045 | 142.41896 | 35159 ft | 505 kts | 52° |
| 2026-05-05 23:05 | 40.16093 | 142.49405 | 35161 ft | 505 kts | 52° |
| 2026-05-05 23:06 | 40.20135 | 142.56920 | 35179 ft | 506 kts | 52° |
| 2026-05-05 23:06 | 40.24178 | 142.64459 | 35165 ft | 506 kts | 52° |
| 2026-05-05 23:07 | 40.28218 | 142.72007 | 35164 ft | 506 kts | 52° |
| 2026-05-05 23:07 | 40.32250 | 142.79560 | 35169 ft | 506 kts | 53° |
| 2026-05-05 23:08 | 40.36280 | 142.87128 | 35164 ft | 506 kts | 53° |
| 2026-05-05 23:08 | 40.40270 | 142.94639 | 35170 ft | 505 kts | 53° |
| 2026-05-05 23:09 | 40.44280 | 143.02205 | 35168 ft | 505 kts | 53° |
| 2026-05-05 23:09 | 40.48282 | 143.09775 | 35167 ft | 504 kts | 53° |
| 2026-05-05 23:10 | 40.52275 | 143.17347 | 35172 ft | 503 kts | 53° |
| 2026-05-05 23:10 | 40.56343 | 143.24809 | 35137 ft | 501 kts | 45° |
| 2026-05-05 23:11 | 40.58894 | 143.27850 | 35184 ft | 491 kts | 31° |
| 2026-05-05 23:11 | 40.61783 | 143.30185 | 35119 ft | 486 kts | 21° |
| 2026-05-05 23:11 | 40.64913 | 143.31734 | 35225 ft | 475 kts | 10° |
| 2026-05-05 23:11 | 40.68085 | 143.32908 | 35199 ft | 476 kts | 11° |
| 2026-05-05 23:12 | 40.74472 | 143.35270 | 35180 ft | 476 kts | 11° |
| 2026-05-05 23:12 | 40.80835 | 143.37692 | 35173 ft | 476 kts | 12° |
| 2026-05-05 23:13 | 40.87195 | 143.40161 | 35160 ft | 476 kts | 12° |
| 2026-05-05 23:13 | 40.93537 | 143.42638 | 35169 ft | 475 kts | 12° |
| 2026-05-05 23:14 | 40.99872 | 143.45114 | 35157 ft | 475 kts | 12° |
| 2026-05-05 23:14 | 41.06211 | 143.47595 | 35147 ft | 474 kts | 12° |
| 2026-05-05 23:15 | 41.12496 | 143.50059 | 35149 ft | 474 kts | 12° |
| 2026-05-05 23:15 | 41.18807 | 143.52539 | 35154 ft | 473 kts | 12° |
| 2026-05-05 23:16 | 41.25119 | 143.55023 | 35130 ft | 472 kts | 12° |
| 2026-05-05 23:16 | 41.31409 | 143.57504 | 35134 ft | 472 kts | 12° |
| 2026-05-05 23:17 | 41.37700 | 143.59991 | 35125 ft | 471 kts | 12° |
| 2026-05-05 23:17 | 41.43984 | 143.62480 | 35117 ft | 471 kts | 12° |
| 2026-05-05 23:18 | 41.50266 | 143.64973 | 35132 ft | 471 kts | 12° |
| 2026-05-05 23:18 | 41.56553 | 143.67473 | 35096 ft | 471 kts | 12° |
| 2026-05-05 23:19 | 41.62840 | 143.69979 | 35118 ft | 472 kts | 12° |
| 2026-05-05 23:19 | 41.69143 | 143.72494 | 35099 ft | 474 kts | 12° |
| 2026-05-05 23:20 | 41.75466 | 143.75025 | 35101 ft | 474 kts | 12° |
| 2026-05-05 23:20 | 41.81796 | 143.77565 | 35082 ft | 475 kts | 12° |
| 2026-05-05 23:21 | 41.88094 | 143.80098 | 35104 ft | 476 kts | 12° |
| 2026-05-05 23:21 | 41.94480 | 143.82671 | 35073 ft | 476 kts | 12° |
| 2026-05-05 23:22 | 42.00766 | 143.85211 | 35074 ft | 475 kts | 11° |
| 2026-05-05 23:22 | 42.07093 | 143.87772 | 35067 ft | 474 kts | 11° |
| 2026-05-05 23:23 | 42.13413 | 143.90334 | 35067 ft | 474 kts | 11° |
| 2026-05-05 23:23 | 42.19735 | 143.92903 | 35055 ft | 475 kts | 11° |
| 2026-05-05 23:24 | 42.26059 | 143.95479 | 35045 ft | 475 kts | 11° |
| 2026-05-05 23:24 | 42.31355 | 143.97640 | 35052 ft | 474 kts | 11° |
| 2026-05-05 23:25 | 42.37633 | 144.00159 | 34696 ft | 477 kts | 11° |
| 2026-05-05 23:25 | 42.40825 | 144.01425 | 33950 ft | 478 kts | 11° |
| 2026-05-05 23:25 | 42.44009 | 144.02694 | 33229 ft | 476 kts | 11° |
| 2026-05-05 23:26 | 42.47188 | 144.03965 | 32522 ft | 475 kts | 11° |
| 2026-05-05 23:26 | 42.50352 | 144.05233 | 31806 ft | 474 kts | 11° |
| 2026-05-05 23:26 | 42.53515 | 144.06502 | 31040 ft | 475 kts | 11° |
| 2026-05-05 23:26 | 42.56695 | 144.07725 | 30286 ft | 474 kts | 8° |
| 2026-05-05 23:27 | 42.59900 | 144.08695 | 29500 ft | 471 kts | 6° |
| 2026-05-05 23:27 | 42.63116 | 144.09533 | 28600 ft | 470 kts | 5° |
| 2026-05-05 23:27 | 42.66339 | 144.10341 | 27651 ft | 472 kts | 5° |
| 2026-05-05 23:27 | 42.69575 | 144.11173 | 26720 ft | 474 kts | 5° |
| 2026-05-05 23:28 | 42.72817 | 144.12038 | 25774 ft | 476 kts | 6° |
| 2026-05-05 23:28 | 42.76056 | 144.12927 | 25141 ft | 471 kts | 6° |
| 2026-05-05 23:28 | 42.79245 | 144.13814 | 24564 ft | 465 kts | 5° |
| 2026-05-05 23:28 | 42.82413 | 144.14689 | 23825 ft | 463 kts | 5° |
| 2026-05-05 23:29 | 42.85580 | 144.15516 | 22820 ft | 465 kts | 5° |
| 2026-05-05 23:29 | 42.88749 | 144.16307 | 22164 ft | 459 kts | 4° |
| 2026-05-05 23:29 | 42.91866 | 144.17087 | 21494 ft | 453 kts | 5° |
| 2026-05-05 23:29 | 42.94952 | 144.17869 | 20837 ft | 449 kts | 5° |
| 2026-05-05 23:30 | 42.97986 | 144.18871 | 20095 ft | 453 kts | 16° |
| 2026-05-05 23:30 | 43.00708 | 144.21151 | 19378 ft | 465 kts | 39° |
| 2026-05-05 23:30 | 43.02786 | 144.24509 | 18842 ft | 465 kts | 56° |
| 2026-05-05 23:30 | 43.04135 | 144.28530 | 18017 ft | 469 kts | 75° |
| 2026-05-05 23:31 | 43.04613 | 144.32929 | 17406 ft | 463 kts | 85° |
| 2026-05-05 23:31 | 43.04864 | 144.37281 | 16718 ft | 459 kts | 86° |
| 2026-05-05 23:31 | 43.05098 | 144.41644 | 16000 ft | 458 kts | 86° |
| 2026-05-05 23:31 | 43.05335 | 144.45962 | 15326 ft | 455 kts | 85° |
| 2026-05-05 23:32 | 43.05583 | 144.50273 | 14647 ft | 453 kts | 85° |
| 2026-05-05 23:32 | 43.05843 | 144.54568 | 13988 ft | 451 kts | 85° |
| 2026-05-05 23:32 | 43.06109 | 144.58827 | 13268 ft | 449 kts | 84° |
| 2026-05-05 23:32 | 43.06376 | 144.63065 | 12572 ft | 447 kts | 84° |
| 2026-05-05 23:33 | 43.06639 | 144.67235 | 11899 ft | 444 kts | 84° |
| 2026-05-05 23:33 | 43.06901 | 144.71417 | 11353 ft | 437 kts | 84° |
| 2026-05-05 23:33 | 43.07149 | 144.75418 | 11225 ft | 408 kts | 85° |
| 2026-05-05 23:33 | 43.07379 | 144.79184 | 11022 ft | 387 kts | 84° |
| 2026-05-05 23:34 | 43.07598 | 144.82756 | 10861 ft | 368 kts | 85° |
| 2026-05-05 23:34 | 43.07807 | 144.86185 | 10696 ft | 357 kts | 85° |
| 2026-05-05 23:34 | 43.08010 | 144.89519 | 10548 ft | 347 kts | 85° |
| 2026-05-05 23:34 | 43.08209 | 144.92809 | 10410 ft | 349 kts | 85° |
| 2026-05-05 23:35 | 43.08406 | 144.96099 | 10268 ft | 342 kts | 85° |
| 2026-05-05 23:35 | 43.08596 | 144.99270 | 10123 ft | 331 kts | 85° |
| 2026-05-05 23:35 | 43.08781 | 145.02376 | 9981 ft | 324 kts | 84° |
| 2026-05-05 23:35 | 43.08962 | 145.05438 | 9667 ft | 323 kts | 84° |
| 2026-05-05 23:36 | 43.09189 | 145.08485 | 9354 ft | 321 kts | 76° |
| 2026-05-05 23:36 | 43.10090 | 145.11206 | 9064 ft | 309 kts | 46° |
| 2026-05-05 23:36 | 43.11587 | 145.13165 | 8828 ft | 292 kts | 24° |
| 2026-05-05 23:36 | 43.13353 | 145.14461 | 8597 ft | 285 kts | 18° |
| 2026-05-05 23:37 | 43.15122 | 145.15682 | 8288 ft | 285 kts | 18° |
| 2026-05-05 23:37 | 43.16889 | 145.16904 | 8017 ft | 284 kts | 18° |
| 2026-05-05 23:37 | 43.18645 | 145.18129 | 7737 ft | 283 kts | 19° |
| 2026-05-05 23:37 | 43.20395 | 145.19360 | 7476 ft | 282 kts | 19° |
| 2026-05-05 23:38 | 43.22135 | 145.20590 | 7214 ft | 281 kts | 19° |
| 2026-05-05 23:38 | 43.23850 | 145.21812 | 7108 ft | 273 kts | 19° |
| 2026-05-05 23:38 | 43.25585 | 145.22578 | 6908 ft | 253 kts | 352° |
| 2026-05-05 23:38 | 43.27253 | 145.22308 | 6847 ft | 230 kts | 337° |
| 2026-05-05 23:39 | 43.28738 | 145.21755 | 6749 ft | 213 kts | 334° |
| 2026-05-05 23:39 | 43.30092 | 145.21183 | 6644 ft | 195 kts | 333° |
| 2026-05-05 23:39 | 43.31344 | 145.20694 | 6510 ft | 179 kts | 333° |
| 2026-05-05 23:39 | 43.32527 | 145.20229 | 6085 ft | 181 kts | 333° |
| 2026-05-05 23:40 | 43.33738 | 145.19763 | 5699 ft | 179 kts | 333° |
| 2026-05-05 23:40 | 43.34907 | 145.19303 | 5469 ft | 169 kts | 333° |
| 2026-05-05 23:40 | 43.35998 | 145.18880 | 5295 ft | 156 kts | 333° |
| 2026-05-05 23:40 | 43.36993 | 145.18503 | 5152 ft | 142 kts | 331° |
| 2026-05-05 23:41 | 43.37910 | 145.18113 | 4953 ft | 132 kts | 326° |
| 2026-05-05 23:41 | 43.38742 | 145.17668 | 4876 ft | 125 kts | 325° |
| 2026-05-05 23:41 | 43.39564 | 145.17215 | 4718 ft | 130 kts | 325° |
| 2026-05-05 23:41 | 43.40424 | 145.16736 | 4509 ft | 138 kts | 325° |
| 2026-05-05 23:42 | 43.41314 | 145.16246 | 4345 ft | 140 kts | 325° |
| 2026-05-05 23:42 | 43.42220 | 145.15747 | 4180 ft | 139 kts | 324° |
| 2026-05-05 23:42 | 43.43129 | 145.15253 | 3988 ft | 140 kts | 324° |
| 2026-05-05 23:42 | 43.44039 | 145.14756 | 3819 ft | 141 kts | 325° |
| 2026-05-05 23:43 | 43.44945 | 145.14256 | 3659 ft | 144 kts | 323° |
| 2026-05-05 23:43 | 43.45789 | 145.13549 | 3437 ft | 136 kts | 302° |
| 2026-05-05 23:43 | 43.46657 | 145.12883 | 3186 ft | 157 kts | 340° |
| 2026-05-05 23:43 | 43.47660 | 145.12737 | 2991 ft | 139 kts | 335° |
| 2026-05-05 23:44 | 43.48553 | 145.12395 | 2944 ft | 131 kts | 328° |
| 2026-05-05 23:44 | 43.49428 | 145.11979 | 2821 ft | 136 kts | 327° |
| 2026-05-05 23:44 | 43.50341 | 145.11490 | 2743 ft | 144 kts | 330° |
| 2026-05-05 23:44 | 43.51278 | 145.10999 | 2627 ft | 145 kts | 323° |
| 2026-05-05 23:45 | 43.52187 | 145.10432 | 2400 ft | 143 kts | 329° |
| 2026-05-05 23:45 | 43.53140 | 145.09950 | 2091 ft | 144 kts | 328° |
| 2026-05-05 23:45 | 43.54057 | 145.09432 | 2134 ft | 144 kts | 326° |
| 2026-05-05 23:45 | 43.54964 | 145.08897 | 2169 ft | 142 kts | 326° |
| 2026-05-05 23:46 | 43.55887 | 145.08377 | 2129 ft | 146 kts | 328° |
| 2026-05-05 23:46 | 43.56836 | 145.07856 | 2148 ft | 145 kts | 323° |
| 2026-05-05 23:46 | 43.57688 | 145.07168 | 2113 ft | 139 kts | 313° |
| 2026-05-05 23:46 | 43.58423 | 145.06314 | 1846 ft | 138 kts | 306° |
| 2026-05-05 23:47 | 43.59036 | 145.05308 | 1625 ft | 134 kts | 293° |
| 2026-05-05 23:47 | 43.59390 | 145.04155 | 1379 ft | 129 kts | 275° |
| 2026-05-05 23:47 | 43.59445 | 145.02938 | 1117 ft | 128 kts | 259° |
| 2026-05-05 23:47 | 43.59217 | 145.01755 | 897 ft | 127 kts | 246° |
| 2026-05-05 23:48 | 43.58917 | 145.00610 | 705 ft | 127 kts | 246° |
| 2026-05-05 23:48 | 43.58620 | 144.99489 | 530 ft | 123 kts | 248° |
| 2026-05-05 23:48 | 43.58346 | 144.98400 | 399 ft | 117 kts | 248° |
| 2026-05-05 23:48 | 43.58090 | 144.97369 | 264 ft | 110 kts | 247° |
| 2026-05-05 23:49 | 43.57859 | 144.96458 | 225 ft | 72 kts | 250° |
| 2026-05-05 23:49 | 43.57806 | 144.96233 | 225 ft | 0 kts | 252° |
| 2026-05-05 23:49 | 43.57797 | 144.96196 | 224 ft | 11 kts | 251° |
| 2026-05-05 23:49 | 43.57758 | 144.96035 | 224 ft | 23 kts | 251° |
| 2026-05-05 23:50 | 43.57703 | 144.95815 | 222 ft | 24 kts | 251° |
| 2026-05-05 23:50 | 43.57650 | 144.95601 | 224 ft | 23 kts | 250° |
| 2026-05-05 23:50 | 43.57565 | 144.95484 | 223 ft | 19 kts | 166° |
| 2026-05-05 23:50 | 43.57445 | 144.95540 | 223 ft | 15 kts | 158° |
| 2026-05-05 23:51 | 43.57389 | 144.95598 | 223 ft | 7 kts | 155° |
| 2026-05-05 23:51 | 43.57366 | 144.95600 | 223 ft | 1 kts | 215° |
| 2026-05-05 23:51 | 43.57366 | 144.95598 | 223 ft | 0 kts | 228° |